Hauptseite
METAR-TAF:

METAR-TAF

Flughäfen :

Doylestown Airport

Doylestown, Pennsylvania, Vereinigte Staaten

Breite: 40-19-48N, Länge: 075-07-21W, Höhe: 120 m

Beobachtung

Neuester Wetterbericht von vor 22 Minuten, um 01:54 UTC
Wind 4 kt aus Nordost
Temperatur -1°C
Luftfeuchtigkeit 31%
Luftdruck 1030 hPa
Sichtweite: 16.1 km
Himmel klar

METAR: KDYL 170154Z AUTO 04004KT 10SM CLR M01/M16 A3041 RMK AO2 SLP307 T10111161

Zeit: 21:16 (02:16 UTC)


TAF: fehlend

Wetterbeobachtungen und Prognosen von mehr als 4000 Flughäfen (METAR und TAF Bericht).

Die verfügbaren Stationen werden durch gelbe und rote Markierungen auf der Karte dargestellt.

Führen Sie die Maus auf sie, um den Namen der Station zu sehen.

Darauf klicken, um die Beobachtung von Wetterbeobachtungen und Prognosen zu sehen.

Um die Karte zu ändern : klicken Sie auf den grünen Tasten mit einem schwarzen Kreuz Zum Vergrößern, auf den grünen Button mit einem Gedankenstrich zu verkleinern, oder auf die grünen Pfeile für benachbarte Karten.


METAR-TAF: